createdAt,value
2017-08-03T00:01:15.582Z,100939.88
2017-08-03T00:03:43.895Z,100935.84
2017-08-03T00:06:12.525Z,100937.28
2017-08-03T00:08:40.447Z,100943.48
2017-08-03T00:11:08.358Z,100945.35
2017-08-03T00:13:36.531Z,100941.63
2017-08-03T00:16:04.460Z,100937.66
2017-08-03T00:18:32.381Z,100929.75
2017-08-03T00:21:00.535Z,100923.75
2017-08-03T00:23:28.447Z,100918.91
2017-08-03T00:25:56.352Z,100925.22
2017-08-03T00:28:24.701Z,100921.47
2017-08-03T00:30:53.031Z,100913.69
2017-08-03T00:33:20.945Z,100908.69
2017-08-03T00:35:49.074Z,100900.72
2017-08-03T00:38:17.061Z,100892.70
2017-08-03T00:40:44.985Z,100885.10
2017-08-03T00:43:13.314Z,100880.05
2017-08-03T00:45:41.624Z,100877.14
2017-08-03T00:48:09.797Z,100873.91
2017-08-03T00:50:38.003Z,100870.78
2017-08-03T00:53:05.932Z,100873.03
2017-08-03T00:55:33.843Z,100876.56
2017-08-03T00:58:02.052Z,100868.11
2017-08-03T01:00:30.383Z,100869.94
2017-08-03T01:02:58.432Z,100869.58
2017-08-03T01:05:26.569Z,100869.31
2017-08-03T01:07:54.483Z,100868.03
2017-08-03T01:10:22.390Z,100867.87
2017-08-03T01:12:50.588Z,100856.97
2017-08-03T01:15:19.018Z,100860.05
2017-08-03T01:17:46.932Z,100854.88
2017-08-03T01:20:15.205Z,100856.61
2017-08-03T01:22:43.131Z,100847.05
2017-08-03T01:25:11.044Z,100841.58
2017-08-03T01:27:39.164Z,100846.33
2017-08-03T01:30:07.067Z,100843.59
2017-08-03T01:32:35.240Z,100845.75
2017-08-03T01:35:03.436Z,100845.21
2017-08-03T01:37:31.356Z,100853.64
2017-08-03T01:39:59.274Z,100850.41
2017-08-03T01:42:27.860Z,100846.26
2017-08-03T01:44:55.771Z,100856.97
2017-08-03T01:47:23.683Z,100861.42
2017-08-03T01:49:51.960Z,100860.02
2017-08-03T01:52:19.941Z,100866.25
2017-08-03T01:54:48.267Z,100858.17
2017-08-03T01:57:16.630Z,100857.72
2017-08-03T01:59:44.543Z,100853.45
2017-08-03T02:02:12.451Z,100848.20
2017-08-03T02:04:41.012Z,100845.34
2017-08-03T02:07:08.930Z,100848.61
2017-08-03T02:09:36.851Z,100845.52
2017-08-03T02:12:05.028Z,100834.23
2017-08-03T02:14:32.948Z,100848.47
2017-08-03T02:17:01.636Z,100836.76
2017-08-03T02:19:29.870Z,100835.75
2017-08-03T02:21:58.185Z,100827.05
2017-08-03T02:24:26.100Z,100834.64
2017-08-03T02:26:54.282Z,100823.13
2017-08-03T02:29:22.188Z,100836.48
2017-08-03T02:31:50.099Z,100834.16
2017-08-03T02:34:18.698Z,100831.39
2017-08-03T02:36:46.633Z,100837.91
2017-08-03T02:39:14.545Z,100837.71
2017-08-03T02:41:42.722Z,100841.30
2017-08-03T02:44:11.033Z,100833.10
2017-08-03T02:46:38.950Z,100827.50
2017-08-03T02:49:07.123Z,100822.43
2017-08-03T02:51:35.027Z,100818.67
2017-08-03T02:54:03.336Z,100824.89
2017-08-03T02:56:31.432Z,100823.30
2017-08-03T02:58:59.344Z,100813.08
2017-08-03T03:01:27.644Z,100811.37
2017-08-03T03:03:55.971Z,100815.03
2017-08-03T03:06:23.884Z,100814.30
2017-08-03T03:08:51.797Z,100819.21
2017-08-03T03:11:19.879Z,100821.95
2017-08-03T03:13:47.788Z,100824.69
2017-08-03T03:16:15.707Z,100816.85
2017-08-03T03:18:43.797Z,100823.13
2017-08-03T03:21:11.702Z,100815.33
2017-08-03T03:23:39.620Z,100797.13
2017-08-03T03:26:07.806Z,100790.75
2017-08-03T03:28:35.733Z,100796.80
2017-08-03T03:31:03.640Z,100803.25
2017-08-03T03:33:31.906Z,100802.30
2017-08-03T03:36:00.015Z,100800.05
2017-08-03T03:38:28.332Z,100807.23
2017-08-03T03:40:56.652Z,100801.80
2017-08-03T03:43:24.565Z,100797.38
2017-08-03T03:45:52.477Z,100791.52
2017-08-03T03:48:20.570Z,100796.21
2017-08-03T03:50:48.886Z,100798.88
2017-08-03T03:53:16.817Z,100799.20
2017-08-03T03:55:45.379Z,100798.75
2017-08-03T03:58:13.315Z,100793.59
2017-08-03T04:00:41.455Z,100775.39
2017-08-03T04:03:09.920Z,100762.78
2017-08-03T04:05:37.832Z,100754.84
2017-08-03T04:08:05.743Z,100764.24
2017-08-03T04:10:33.883Z,100767.95
2017-08-03T04:13:01.817Z,100769.67
2017-08-03T04:15:30.407Z,100773.59
2017-08-03T04:17:58.762Z,100773.95
2017-08-03T04:20:26.688Z,100770.80
2017-08-03T04:22:54.601Z,100759.98
2017-08-03T04:25:23.270Z,100768.74
2017-08-03T04:27:51.196Z,100779.91
2017-08-03T04:30:19.107Z,100772.39
2017-08-03T04:32:47.247Z,100784.85
2017-08-03T04:35:15.152Z,100783.35
2017-08-03T04:37:43.307Z,100775.12
2017-08-03T04:40:11.402Z,100769.53
2017-08-03T04:42:39.327Z,100761.06
2017-08-03T04:45:07.242Z,100752.41
2017-08-03T04:47:35.524Z,100758.08
2017-08-03T04:50:03.446Z,100758.78
2017-08-03T04:52:31.515Z,100745.48
2017-08-03T04:54:59.635Z,100745.70
2017-08-03T04:57:27.543Z,100742.80
2017-08-03T04:59:55.462Z,100742.61
2017-08-03T05:02:23.697Z,100724.77
2017-08-03T05:04:51.653Z,100718.96
2017-08-03T05:07:19.568Z,100707.14
2017-08-03T05:09:47.852Z,100701.46
2017-08-03T05:12:15.771Z,100713.80
2017-08-03T05:14:43.679Z,100718.40
2017-08-03T05:17:11.775Z,100712.80
2017-08-03T05:19:39.699Z,100727.77
2017-08-03T05:22:07.604Z,100721.42
2017-08-03T05:24:35.881Z,100708.58
2017-08-03T05:27:03.789Z,100711.30
2017-08-03T05:29:31.700Z,100713.02
2017-08-03T05:31:59.901Z,100725.77
2017-08-03T05:34:27.821Z,100721.53
2017-08-03T05:36:55.745Z,100708.42
2017-08-03T05:39:24.308Z,100708.84
2017-08-03T05:41:52.258Z,100702.20
2017-08-03T05:44:20.164Z,100709.73
2017-08-03T05:46:48.330Z,100713.48
2017-08-03T05:49:16.256Z,100710.22
2017-08-03T05:51:44.170Z,100701.45
2017-08-03T05:54:12.443Z,100704.95
2017-08-03T05:56:40.349Z,100697.36
2017-08-03T05:59:08.256Z,100691.86
2017-08-03T06:01:36.420Z,100695.11
2017-08-03T06:04:04.331Z,100693.20
2017-08-03T06:06:32.246Z,100678.44
2017-08-03T06:09:00.363Z,100683.47
2017-08-03T06:11:28.287Z,100688.89
2017-08-03T06:13:56.206Z,100672.48
2017-08-03T06:16:24.478Z,100668.19
2017-08-03T06:18:52.384Z,100677.08
2017-08-03T06:21:20.288Z,100677.69
2017-08-03T06:23:48.387Z,100680.63
2017-08-03T06:26:16.296Z,100675.69
2017-08-03T06:28:44.212Z,100665.69
2017-08-03T06:31:12.305Z,100658.44
2017-08-03T06:33:40.227Z,100644.78
2017-08-03T06:36:08.149Z,100648.55
2017-08-03T06:38:36.731Z,100644.56
2017-08-03T06:43:39.112Z,100648.75
2017-08-03T06:46:07.035Z,100646.66
2017-08-03T06:48:34.947Z,100642.50
2017-08-03T06:51:03.126Z,100641.02
2017-08-03T06:53:31.035Z,100645.53
2017-08-03T06:55:58.946Z,100640.73
2017-08-03T06:58:27.138Z,100626.87
2017-08-03T07:00:55.058Z,100620.26
2017-08-03T07:03:22.967Z,100621.73
2017-08-03T07:05:51.241Z,100629.69
2017-08-03T07:08:19.158Z,100629.89
2017-08-03T07:10:47.071Z,100628.05
2017-08-03T07:13:15.165Z,100626.05
2017-08-03T07:15:43.084Z,100618.05
2017-08-03T07:18:10.994Z,100597.47
2017-08-03T07:20:39.079Z,100610.77
2017-08-03T07:23:07.385Z,100609.97
2017-08-03T07:25:35.309Z,100608.52
2017-08-03T07:28:03.605Z,100594.88
2017-08-03T07:30:31.927Z,100587.09
2017-08-03T07:32:59.846Z,100586.96
2017-08-03T07:35:28.011Z,100589.97
2017-08-03T07:37:56.008Z,100595.00
2017-08-03T07:40:24.307Z,100588.75
2017-08-03T07:42:52.950Z,100578.14
2017-08-03T07:45:20.872Z,100590.98
2017-08-03T07:47:48.789Z,100587.08
2017-08-03T07:50:16.965Z,100578.00
2017-08-03T07:52:44.884Z,100568.11
2017-08-03T07:55:12.791Z,100563.48
2017-08-03T07:57:40.997Z,100583.42
2017-08-03T08:00:08.915Z,100588.17
2017-08-03T08:02:37.259Z,100606.89
2017-08-03T08:05:05.396Z,100589.37
2017-08-03T08:07:33.309Z,100571.78
2017-08-03T08:10:01.210Z,100578.81
2017-08-03T08:12:29.365Z,100574.56
2017-08-03T08:14:57.312Z,100573.86
2017-08-03T08:17:25.214Z,100571.52
2017-08-03T08:19:53.326Z,100586.67
2017-08-03T08:22:21.646Z,100586.55
2017-08-03T08:24:49.546Z,100580.80
2017-08-03T08:27:26.944Z,100568.05
2017-08-03T08:29:54.880Z,100561.00
2017-08-03T08:32:22.809Z,100548.77
2017-08-03T08:34:51.359Z,100553.61
2017-08-03T08:37:19.340Z,100559.98
2017-08-03T08:39:47.243Z,100558.55
2017-08-03T08:42:15.591Z,100550.80
2017-08-03T08:44:43.727Z,100539.69
2017-08-03T08:47:11.671Z,100539.39
2017-08-03T08:49:39.890Z,100538.28
2017-08-03T08:52:07.806Z,100546.27
2017-08-03T08:54:35.706Z,100528.19
2017-08-03T08:57:03.804Z,100520.67
2017-08-03T08:59:31.720Z,100518.01
2017-08-03T09:01:59.623Z,100504.06
2017-08-03T09:04:27.730Z,100503.12
2017-08-03T09:06:55.938Z,100501.77
2017-08-03T09:09:23.853Z,100490.23
2017-08-03T09:11:52.040Z,100479.58
2017-08-03T09:14:19.946Z,100475.48
2017-08-03T09:16:47.859Z,100477.73
2017-08-03T09:19:16.049Z,100472.72
2017-08-03T09:21:43.960Z,100475.05
2017-08-03T09:24:11.857Z,100477.83
2017-08-03T09:26:40.064Z,100487.23
2017-08-03T09:29:07.982Z,100486.84
2017-08-03T09:31:35.899Z,100496.41
2017-08-03T09:34:03.972Z,100506.20
2017-08-03T09:36:31.892Z,100504.08
2017-08-03T09:38:59.804Z,100508.72
2017-08-03T09:41:27.984Z,100498.66
2017-08-03T09:43:55.895Z,100508.86
2017-08-03T09:46:24.104Z,100508.86
2017-08-03T09:48:52.402Z,100515.00
2017-08-03T09:51:20.311Z,100518.79
2017-08-03T09:53:48.214Z,100515.00
2017-08-03T09:56:16.317Z,100512.05
2017-08-03T09:58:44.246Z,100511.63
2017-08-03T10:01:12.156Z,100511.75
2017-08-03T10:03:40.372Z,100504.20
2017-08-03T10:06:08.280Z,100510.98
2017-08-03T10:08:36.272Z,100510.78
2017-08-03T10:11:04.531Z,100507.05
2017-08-03T10:13:32.438Z,100501.58
2017-08-03T10:16:00.729Z,100498.27
2017-08-03T10:18:28.958Z,100496.92
2017-08-03T10:20:56.868Z,100511.91
2017-08-03T10:23:24.787Z,100502.65
2017-08-03T10:25:53.020Z,100501.80
2017-08-03T10:28:20.918Z,100488.25
2017-08-03T10:30:48.823Z,100470.80
2017-08-03T10:33:16.993Z,100473.70
2017-08-03T10:35:44.912Z,100470.66
2017-08-03T10:38:12.810Z,100471.80
2017-08-03T10:40:41.008Z,100463.25
2017-08-03T10:43:08.922Z,100457.00
2017-08-03T10:45:37.576Z,100453.27
2017-08-03T10:48:06.557Z,100451.30
2017-08-03T10:50:34.471Z,100449.21
2017-08-03T10:53:02.382Z,100445.88
2017-08-03T10:55:30.562Z,100429.05
2017-08-03T10:57:58.480Z,100425.91
2017-08-03T11:00:26.396Z,100425.73
2017-08-03T11:02:54.709Z,100422.80
2017-08-03T11:05:22.624Z,100418.25
2017-08-03T11:07:50.531Z,100417.03
2017-08-03T11:10:18.642Z,100421.28
2017-08-03T11:12:46.835Z,100432.55
2017-08-03T11:15:14.745Z,100437.48
2017-08-03T11:17:43.526Z,100409.87
2017-08-03T11:20:11.827Z,100409.41
2017-08-03T11:22:39.740Z,100404.06
2017-08-03T11:25:07.929Z,100408.61
2017-08-03T11:27:35.847Z,100400.05
2017-08-03T11:30:03.763Z,100390.63
2017-08-03T11:32:31.930Z,100379.73
2017-08-03T11:34:59.851Z,100367.66
2017-08-03T11:37:27.777Z,100368.37
2017-08-03T11:39:55.964Z,100373.19
2017-08-03T11:42:23.885Z,100370.58
2017-08-03T11:44:51.803Z,100372.66
2017-08-03T11:47:19.976Z,100369.48
2017-08-03T11:49:48.214Z,100361.50
2017-08-03T11:52:16.124Z,100351.67
2017-08-03T11:54:44.334Z,100346.88
2017-08-03T11:57:12.243Z,100335.81
2017-08-03T11:59:40.162Z,100331.33
2017-08-03T12:02:08.412Z,100311.55
2017-08-03T12:04:36.326Z,100316.97
2017-08-03T12:07:04.224Z,100309.91
2017-08-03T12:09:32.411Z,100306.73
2017-08-03T12:12:00.309Z,100313.86
2017-08-03T12:14:28.627Z,100308.94
2017-08-03T12:16:56.930Z,100307.66
2017-08-03T12:19:24.846Z,100311.25
2017-08-03T12:21:52.784Z,100307.58
2017-08-03T12:24:20.960Z,100315.08
2017-08-03T12:26:48.859Z,100324.70
2017-08-03T12:29:16.762Z,100315.80
2017-08-03T12:31:44.963Z,100315.19
2017-08-03T12:34:12.935Z,100313.25
2017-08-03T12:36:40.831Z,100313.68
2017-08-03T12:39:09.670Z,100310.72
2017-08-03T12:41:37.579Z,100309.12
2017-08-03T12:44:05.875Z,100312.83
2017-08-03T12:46:34.016Z,100303.77
2017-08-03T12:49:01.943Z,100291.82
2017-08-03T12:51:30.056Z,100297.22
2017-08-03T12:53:58.196Z,100285.39
2017-08-03T12:56:26.121Z,100275.06
2017-08-03T12:58:54.418Z,100299.37
2017-08-03T13:01:22.548Z,100284.70
2017-08-03T13:03:50.572Z,100275.80
2017-08-03T13:06:18.509Z,100277.05
2017-08-03T13:08:47.079Z,100276.97
2017-08-03T13:11:14.987Z,100270.63
2017-08-03T13:13:42.887Z,100278.03
2017-08-03T13:16:10.987Z,100274.55
2017-08-03T13:18:38.898Z,100268.50
2017-08-03T13:21:06.807Z,100264.92
2017-08-03T13:23:34.996Z,100261.88
2017-08-03T13:26:02.924Z,100253.11
2017-08-03T13:28:30.844Z,100251.41
2017-08-03T13:30:59.518Z,100247.22
2017-08-03T13:33:27.432Z,100240.73
2017-08-03T13:35:55.334Z,100242.45
2017-08-03T13:38:23.634Z,100234.61
2017-08-03T13:40:51.547Z,100225.54
2017-08-03T13:43:19.703Z,100225.55
2017-08-03T13:45:47.815Z,100218.65
2017-08-03T13:48:15.722Z,100214.23
2017-08-03T13:50:44.068Z,100207.73
2017-08-03T13:53:12.692Z,100205.54
2017-08-03T13:55:41.060Z,100203.39
2017-08-03T13:58:08.978Z,100189.67
2017-08-03T14:00:37.186Z,100188.38
2017-08-03T14:03:05.090Z,100174.52
2017-08-03T14:05:33.403Z,100180.28
2017-08-03T14:08:01.511Z,100178.47
2017-08-03T14:10:29.424Z,100163.34
2017-08-03T14:12:57.326Z,100166.38
2017-08-03T14:15:25.623Z,100164.53
2017-08-03T14:17:53.531Z,100163.11
2017-08-03T14:20:21.824Z,100158.50
2017-08-03T14:22:49.935Z,100157.20
2017-08-03T14:25:17.872Z,100161.33
2017-08-03T14:27:45.777Z,100158.70
2017-08-03T14:30:14.033Z,100154.66
2017-08-03T14:32:41.946Z,100146.34
2017-08-03T14:35:10.262Z,100152.48
2017-08-03T14:37:38.367Z,100157.67
2017-08-03T14:40:06.280Z,100153.03
2017-08-03T14:42:34.885Z,100145.87
2017-08-03T14:45:03.121Z,100144.23
2017-08-03T14:47:31.022Z,100141.30
2017-08-03T14:49:58.958Z,100148.22
2017-08-03T14:52:27.527Z,100153.84
2017-08-03T14:54:55.696Z,100150.28
2017-08-03T14:57:23.613Z,100152.29
2017-08-03T14:59:51.948Z,100150.02
2017-08-03T15:02:19.923Z,100144.17
2017-08-03T15:04:47.831Z,100129.11
2017-08-03T15:07:16.425Z,100115.66
2017-08-03T15:09:44.358Z,100105.50
2017-08-03T15:12:12.269Z,100101.06
2017-08-03T15:14:40.494Z,100106.56
2017-08-03T15:17:08.400Z,100114.52
2017-08-03T15:19:36.313Z,100115.88
2017-08-03T15:22:04.493Z,100108.58
2017-08-03T15:24:32.394Z,100102.72
2017-08-03T15:27:00.713Z,100100.41
2017-08-03T15:29:29.140Z,100086.76
2017-08-03T15:31:57.453Z,100080.92
2017-08-03T15:34:25.354Z,100057.74
2017-08-03T15:36:54.003Z,100081.72
2017-08-03T15:39:22.376Z,100097.11
2017-08-03T15:41:50.741Z,100103.13
2017-08-03T15:44:19.824Z,100132.94
2017-08-03T15:46:48.586Z,100166.77
2017-08-03T15:49:16.943Z,100209.87
2017-08-03T15:51:45.747Z,100210.56
2017-08-03T15:54:14.099Z,100183.13
2017-08-03T15:56:42.796Z,100144.52
2017-08-03T15:59:11.505Z,100123.59
2017-08-03T16:01:39.868Z,100123.69
2017-08-03T16:04:08.223Z,100123.11
2017-08-03T16:06:37.096Z,100109.13
2017-08-03T16:09:05.883Z,100106.48
2017-08-03T16:11:34.653Z,100103.56
2017-08-03T16:14:03.936Z,100101.29
2017-08-03T16:16:32.312Z,100106.98
2017-08-03T16:19:00.680Z,100109.27
2017-08-03T16:21:29.051Z,100105.75
2017-08-03T16:23:57.411Z,100100.88
2017-08-03T16:26:25.793Z,100112.18
2017-08-03T16:28:54.159Z,100121.32
2017-08-03T16:31:22.825Z,100125.99
2017-08-03T16:33:51.582Z,100118.46
2017-08-03T16:36:19.936Z,100123.48
2017-08-03T16:38:48.669Z,100127.82
2017-08-03T16:41:18.623Z,100120.44
2017-08-03T16:43:46.975Z,100126.09
2017-08-03T16:46:15.744Z,100123.91
2017-08-03T16:48:44.099Z,100113.67
2017-08-03T16:51:12.470Z,100106.45
2017-08-03T16:53:40.815Z,100103.73
2017-08-03T16:56:09.179Z,100107.38
2017-08-03T16:58:37.935Z,100103.80
2017-08-03T17:01:06.291Z,100098.02
2017-08-03T17:03:34.669Z,100109.95
2017-08-03T17:06:03.177Z,100104.98
2017-08-03T17:08:31.532Z,100108.66
2017-08-03T17:10:59.908Z,100101.91
2017-08-03T17:13:28.286Z,100100.72
2017-08-03T17:15:56.656Z,100098.98
2017-08-03T17:18:25.054Z,100104.08
2017-08-03T17:20:53.416Z,100103.09
2017-08-03T17:23:21.796Z,100102.75
2017-08-03T17:25:50.160Z,100100.94
2017-08-03T17:28:18.677Z,100105.84
2017-08-03T17:30:47.364Z,100112.48
2017-08-03T17:33:15.722Z,100110.64
2017-08-03T17:35:44.139Z,100111.53
2017-08-03T17:38:12.507Z,100114.08
2017-08-03T17:40:40.888Z,100111.02
2017-08-03T17:43:09.243Z,100115.36
2017-08-03T17:45:37.641Z,100117.11
2017-08-03T17:48:06.009Z,100118.92
2017-08-03T17:50:34.919Z,100125.20
2017-08-03T17:53:03.317Z,100120.38
2017-08-03T17:55:31.687Z,100121.03
2017-08-03T17:58:00.072Z,100116.62
2017-08-03T18:00:28.556Z,100126.59
2017-08-03T18:02:56.938Z,100117.75
2017-08-03T18:05:25.302Z,100119.00
2017-08-03T18:07:53.884Z,100136.56
2017-08-03T18:10:22.268Z,100134.31
2017-08-03T18:12:50.630Z,100135.44
2017-08-03T18:15:19.006Z,100140.75
2017-08-03T18:17:47.363Z,100144.76
2017-08-03T18:20:15.731Z,100151.39
2017-08-03T18:22:44.097Z,100151.09
2017-08-03T18:25:12.948Z,100150.18
2017-08-03T18:27:41.332Z,100158.24
2017-08-03T18:30:09.721Z,100153.33
2017-08-03T18:32:38.090Z,100162.12
2017-08-03T18:35:06.664Z,100164.62
2017-08-03T18:37:35.040Z,100172.43
2017-08-03T18:40:03.422Z,100171.34
2017-08-03T18:42:31.795Z,100182.88
2017-08-03T18:45:00.156Z,100194.97
2017-08-03T18:47:28.536Z,100197.18
2017-08-03T18:49:56.955Z,100202.91
2017-08-03T18:52:25.719Z,100204.73
2017-08-03T18:54:54.101Z,100213.78
2017-08-03T18:57:22.443Z,100212.91
2017-08-03T18:59:50.826Z,100216.84
2017-08-03T19:02:19.196Z,100218.11
2017-08-03T19:04:47.959Z,100229.20
2017-08-03T19:07:17.217Z,100230.33
2017-08-03T19:09:45.589Z,100226.56
2017-08-03T19:12:13.949Z,100243.41
2017-08-03T19:14:42.315Z,100239.55
2017-08-03T19:17:11.082Z,100244.72
2017-08-03T19:19:40.302Z,100242.05
2017-08-03T19:22:09.059Z,100249.77
2017-08-03T19:24:37.528Z,100241.30
2017-08-03T19:27:06.897Z,100253.99
2017-08-03T19:29:35.249Z,100255.77
2017-08-03T19:32:04.077Z,100257.89
2017-08-03T19:34:32.419Z,100252.23
2017-08-03T19:37:01.192Z,100255.20
2017-08-03T19:39:29.532Z,100260.69
2017-08-03T19:41:57.899Z,100262.47
2017-08-03T19:44:26.250Z,100267.16
2017-08-03T19:46:55.068Z,100274.63
2017-08-03T19:49:23.451Z,100278.16
2017-08-03T19:51:51.830Z,100284.83
2017-08-03T19:54:20.195Z,100291.61
2017-08-03T19:56:49.077Z,100292.43
2017-08-03T19:59:17.469Z,100306.56
2017-08-03T20:01:45.828Z,100313.16
2017-08-03T20:04:14.590Z,100313.08
2017-08-03T20:06:47.729Z,100313.08
2017-08-03T20:12:16.816Z,100324.36
2017-08-03T20:14:45.583Z,100325.30
2017-08-03T20:17:13.963Z,100330.05
2017-08-03T20:19:42.541Z,100328.29
2017-08-03T20:22:10.905Z,100331.03
2017-08-03T20:24:39.268Z,100332.21
2017-08-03T20:27:07.630Z,100331.67
2017-08-03T20:29:35.998Z,100343.88
2017-08-03T20:32:04.374Z,100348.27
2017-08-03T20:34:33.218Z,100351.84
2017-08-03T20:37:01.576Z,100344.42
2017-08-03T20:39:29.931Z,100341.39
2017-08-03T20:41:58.291Z,100341.36
2017-08-03T20:44:27.281Z,100343.44
2017-08-03T20:46:56.030Z,100343.50
2017-08-03T20:49:24.400Z,100341.75
2017-08-03T20:51:52.914Z,100342.97
2017-08-03T20:54:21.283Z,100351.41
2017-08-03T20:56:49.641Z,100354.44
2017-08-03T20:59:18.013Z,100351.78
2017-08-03T21:01:46.369Z,100358.61
2017-08-03T21:04:14.745Z,100361.38
2017-08-03T21:06:43.101Z,100366.67
2017-08-03T21:09:11.870Z,100363.71
2017-08-03T21:11:40.221Z,100364.54
2017-08-03T21:14:09.020Z,100367.53
2017-08-03T21:16:37.391Z,100369.25
2017-08-03T21:19:05.754Z,100370.73
2017-08-03T21:21:34.128Z,100378.21
2017-08-03T21:24:02.481Z,100372.37
2017-08-03T21:26:30.873Z,100373.12
2017-08-03T21:28:59.622Z,100372.13
2017-08-03T21:31:28.227Z,100376.19
2017-08-03T21:33:56.963Z,100378.47
2017-08-03T21:36:25.333Z,100380.60
2017-08-03T21:38:53.697Z,100384.40
2017-08-03T21:41:22.238Z,100377.52
2017-08-03T21:43:50.598Z,100379.00
2017-08-03T21:46:18.955Z,100380.86
2017-08-03T21:48:47.308Z,100382.42
2017-08-03T21:51:16.058Z,100370.78
2017-08-03T21:53:44.413Z,100373.13
2017-08-03T21:56:12.768Z,100372.66
2017-08-03T21:58:41.126Z,100362.27
2017-08-03T22:01:16.836Z,100372.58
2017-08-03T22:03:45.206Z,100373.67
2017-08-03T22:06:13.554Z,100377.98
2017-08-03T22:08:42.075Z,100389.28
2017-08-03T22:11:10.437Z,100388.02
2017-08-03T22:13:38.798Z,100389.54
2017-08-03T22:16:07.188Z,100390.09
2017-08-03T22:18:35.535Z,100404.33
2017-08-03T22:21:03.893Z,100407.05
2017-08-03T22:23:32.230Z,100413.61
2017-08-03T22:26:00.977Z,100426.41
2017-08-03T22:28:29.729Z,100430.48
2017-08-03T22:30:58.413Z,100433.22
2017-08-03T22:33:26.763Z,100432.61
2017-08-03T22:35:55.117Z,100427.08
2017-08-03T22:38:23.881Z,100428.77
2017-08-03T22:40:52.223Z,100434.16
2017-08-03T22:43:20.590Z,100432.50
2017-08-03T22:45:48.948Z,100426.22
2017-08-03T22:48:17.313Z,100418.77
2017-08-03T22:50:45.673Z,100418.88
2017-08-03T22:53:14.027Z,100423.22
2017-08-03T22:55:42.382Z,100431.27
2017-08-03T22:58:10.731Z,100437.12
2017-08-03T23:00:39.473Z,100429.28
2017-08-03T23:03:07.840Z,100432.18
2017-08-03T23:05:36.206Z,100433.81
2017-08-03T23:08:04.568Z,100426.72
2017-08-03T23:10:32.981Z,100426.31
2017-08-03T23:13:01.403Z,100425.37
2017-08-03T23:15:29.768Z,100432.88
2017-08-03T23:17:58.119Z,100432.44
2017-08-03T23:20:26.480Z,100424.31
2017-08-03T23:22:55.616Z,100426.19
2017-08-03T23:25:24.188Z,100435.91
2017-08-03T23:27:52.542Z,100428.19
2017-08-03T23:30:20.894Z,100435.74
2017-08-03T23:32:49.648Z,100433.50
2017-08-03T23:35:18.004Z,100440.11
2017-08-03T23:37:46.363Z,100433.41
2017-08-03T23:40:14.728Z,100429.52
2017-08-03T23:42:43.539Z,100427.08
2017-08-03T23:45:11.885Z,100424.91
2017-08-03T23:47:40.637Z,100421.84
2017-08-03T23:50:09.005Z,100437.96
2017-08-03T23:52:37.596Z,100443.57
2017-08-03T23:55:05.972Z,100452.48
2017-08-03T23:57:34.345Z,100448.52
